»·PEaware :: N923E L88-KSBP

N923E :: L88-KSBP

FLIGHT INFORMATION

Flight Status: Arrived
Operator: Privately registered:
United States
More flights under this callsign
Pilot: Louden S. (25159)
Aircraft: PIPER PA-22 TRI PACER/CARIBBEAN
(PA22)
More flights by this aircraft type
Origin: L88 New Cuyama
United States
Destination: KSBP San Luis Co Regl
United States
More flights between these airports :: More routes between these airports
Route: DIRECT
File this flight plan on PilotEdge
Remarks:
Altitude:
(Current/Filed)
6,500ft
Speed:
(Current/Filed)
130kts
Departed: 25-Jun-19 10:53 AM
Arrived: 25-Jun-19 11:37 AM
Distance/Time
Traveled:
50nm/0:43
Distance/Time
To Go:
Arrived

Flight Plot

Page will automatically refresh every two minutes.


Map Options




Map Legend


Flown Route
Filed Route
Departure Airport
Arrival Airport
Navaid (VOR, NDB)
Fix

Horizontal Profiles

Position Reports

Time Latitude Longitude Heading Altitude Ground
Speed
25-Jun-19 10:50 34.940549 -119.686897 115 2171ft 30kts
25-Jun-19 10:51 34.939783 -119.685213 297 2179ft 0kts
25-Jun-19 10:52 34.944470 -119.696681 294 2616ft 78kts
25-Jun-19 10:53 34.950358 -119.711977 295 3373ft 83kts
25-Jun-19 10:54 34.956187 -119.729996 293 3997ft 90kts
25-Jun-19 10:55 34.960259 -119.748834 282 4588ft 93kts
25-Jun-19 10:56 34.962332 -119.768021 265 5152ft 94kts
25-Jun-19 10:57 34.965995 -119.787774 291 5665ft 96kts
25-Jun-19 10:58 34.971918 -119.805284 291 6103ft 98kts
25-Jun-19 10:59 34.978803 -119.824396 297 6306ft 112kts
25-Jun-19 11:00 34.985975 -119.844223 291 6407ft 115kts
25-Jun-19 11:01 34.992530 -119.865657 288 6484ft 116kts
25-Jun-19 11:02 34.999348 -119.888855 290 6534ft 116kts
25-Jun-19 11:03 35.007210 -119.911230 296 6615ft 116kts
25-Jun-19 11:04 35.014805 -119.934210 283 6655ft 117kts
25-Jun-19 11:05 35.017634 -119.959395 290 6697ft 116kts
25-Jun-19 11:06 35.025230 -119.983317 295 6743ft 117kts
25-Jun-19 11:07 35.034678 -120.006685 297 6766ft 119kts
25-Jun-19 11:08 35.044041 -120.029537 291 6821ft 117kts
25-Jun-19 11:09 35.051954 -120.053640 295 6862ft 118kts
25-Jun-19 11:10 35.060958 -120.077129 299 6892ft 118kts
25-Jun-19 11:11 35.074918 -120.095863 308 6895ft 118kts
25-Jun-19 11:12 35.084916 -120.118685 287 6930ft 118kts
25-Jun-19 11:13 35.090510 -120.143644 284 6956ft 118kts
25-Jun-19 11:14 35.096493 -120.168125 286 6980ft 118kts
25-Jun-19 11:15 35.102261 -120.191226 287 6995ft 118kts
25-Jun-19 11:16 35.108793 -120.215025 288 6979ft 120kts
25-Jun-19 11:17 35.113896 -120.237366 285 7009ft 118kts
25-Jun-19 11:18 35.119355 -120.259265 289 7031ft 117kts
25-Jun-19 11:19 35.125695 -120.282302 285 7033ft 119kts
25-Jun-19 11:20 35.130772 -120.305287 286 6917ft 123kts
25-Jun-19 11:21 35.137078 -120.328495 290 6747ft 126kts
25-Jun-19 11:22 35.143444 -120.352047 289 6439ft 132kts
25-Jun-19 11:23 35.150678 -120.376217 290 6005ft 136kts
25-Jun-19 11:24 35.158430 -120.400137 292 5606ft 136kts
25-Jun-19 11:25 35.166000 -120.422200 294 4985ft 116kts
25-Jun-19 11:26 35.171703 -120.442424 291 4479ft 101kts
25-Jun-19 11:27 35.177197 -120.462825 288 4009ft 123kts
25-Jun-19 11:28 35.183542 -120.488285 286 3707ft 131kts
25-Jun-19 11:29 35.189840 -120.513743 286 3282ft 139kts
25-Jun-19 11:30 35.195667 -120.538596 283 2823ft 138kts
25-Jun-19 11:31 35.200771 -120.565945 285 2295ft 142kts
25-Jun-19 11:32 35.209027 -120.591183 303 1476ft 120kts
25-Jun-19 11:33 35.219187 -120.609549 306 862ft 81kts
25-Jun-19 11:34 35.226095 -120.621508 307 476ft 69kts
25-Jun-19 11:35 35.232531 -120.632559 304 265ft 59kts
25-Jun-19 11:36 35.236706 -120.639813 323 216ft 18kts
25-Jun-19 11:37 35.237581 -120.639891 12 216ft 7kts
25-Jun-19 11:38 35.238684 -120.639563 238 216ft 0kts
25-Jun-19 11:39 35.238684 -120.639563 237 216ft 0kts
25-Jun-19 11:40 35.238684 -120.639563 237 216ft 0kts

Navigation Log

Ident Type
Flight plan parsing failed, navigation log unavailable